createdAt,value
2022-11-28T00:00:34.422Z,9.75
2022-11-28T00:03:01.739Z,7.30
2022-11-28T00:05:29.031Z,8.18
2022-11-28T00:07:56.383Z,8.57
2022-11-28T00:10:23.696Z,7.45
2022-11-28T00:12:50.855Z,9.55
2022-11-28T00:15:18.066Z,6.75
2022-11-28T00:17:45.318Z,8.27
2022-11-28T00:20:12.687Z,7.45
2022-11-28T00:22:40.026Z,6.95
2022-11-28T00:25:07.876Z,8.23
2022-11-28T00:27:35.660Z,6.95
2022-11-28T00:30:02.891Z,6.90
2022-11-28T00:32:30.059Z,6.32
2022-11-28T00:34:57.333Z,7.70
2022-11-28T00:37:24.667Z,7.65
2022-11-28T00:39:52.056Z,7.35
2022-11-28T00:42:22.138Z,8.75
2022-11-28T00:44:52.405Z,8.18
2022-11-28T00:47:19.716Z,7.72
2022-11-28T00:49:46.877Z,8.43
2022-11-28T00:52:14.042Z,7.47
2022-11-28T00:54:41.473Z,7.68
2022-11-28T00:57:08.948Z,7.88
2022-11-28T00:59:36.186Z,7.75
2022-11-28T01:02:03.457Z,7.85
2022-11-28T01:04:33.310Z,7.70
2022-11-28T01:07:00.525Z,7.97
2022-11-28T01:09:27.928Z,8.38
2022-11-28T01:11:55.279Z,8.57
2022-11-28T01:14:23.901Z,8.95
2022-11-28T01:16:51.276Z,9.57
2022-11-28T01:19:19.281Z,11.88
2022-11-28T01:21:46.630Z,8.73
2022-11-28T01:24:14.608Z,8.15
2022-11-28T01:26:42.206Z,11.02
2022-11-28T01:29:09.910Z,9.10
2022-11-28T01:31:37.314Z,11.65
2022-11-28T01:34:04.547Z,8.40
2022-11-28T01:36:32.367Z,7.15
2022-11-28T01:38:59.596Z,6.80
2022-11-28T01:41:29.523Z,7.38
2022-11-28T01:44:07.562Z,10.10
2022-11-28T01:46:35.788Z,7.22
2022-11-28T01:49:23.568Z,7.60
2022-11-28T01:51:54.101Z,6.38
2022-11-28T01:54:22.328Z,6.68
2022-11-28T01:56:52.143Z,10.25
2022-11-28T01:59:19.844Z,8.60
2022-11-28T02:01:47.101Z,6.70
2022-11-28T02:04:15.018Z,5.45
2022-11-28T02:06:42.941Z,7.68
2022-11-28T02:09:14.227Z,14.07
2022-11-28T02:11:56.639Z,7.35
2022-11-28T02:14:23.823Z,8.00
2022-11-28T02:17:09.984Z,9.65
2022-11-28T02:19:37.127Z,6.22
2022-11-28T02:22:18.530Z,7.05
2022-11-28T02:24:56.872Z,6.25
2022-11-28T02:27:30.271Z,8.82
2022-11-28T02:30:03.743Z,10.35
2022-11-28T02:32:41.245Z,6.38
2022-11-28T02:35:21.007Z,6.32
2022-11-28T02:37:58.272Z,6.53
2022-11-28T02:40:30.060Z,5.05
2022-11-28T02:43:09.456Z,6.38
2022-11-28T02:45:36.674Z,6.07
2022-11-28T02:48:05.377Z,7.30
2022-11-28T02:50:45.880Z,6.45
2022-11-28T02:53:14.858Z,5.57
2022-11-28T02:55:42.237Z,5.20
2022-11-28T02:58:10.297Z,7.30
2022-11-28T03:00:39.249Z,5.55
2022-11-28T03:03:25.400Z,6.32
2022-11-28T03:05:58.629Z,5.32
2022-11-28T03:08:28.812Z,6.22
2022-11-28T03:11:03.122Z,5.47
2022-11-28T03:13:48.785Z,5.60
2022-11-28T03:16:22.184Z,5.03
2022-11-28T03:18:49.448Z,6.22
2022-11-28T03:21:35.378Z,5.45
2022-11-28T03:24:07.377Z,4.88
2022-11-28T03:26:39.528Z,5.10
2022-11-28T03:29:16.028Z,6.28
2022-11-28T03:31:45.696Z,5.00
2022-11-28T03:34:16.444Z,6.70
2022-11-28T03:36:50.884Z,4.47
2022-11-28T03:39:22.561Z,5.15
2022-11-28T03:42:08.665Z,5.53
2022-11-28T03:44:42.067Z,4.47
2022-11-28T03:49:40.135Z,4.05
2022-11-28T03:52:10.736Z,5.07
2022-11-28T03:54:41.523Z,5.57
2022-11-28T03:57:15.314Z,6.82
2022-11-28T03:59:44.189Z,4.32
2022-11-28T04:02:23.425Z,5.63
2022-11-28T04:05:02.411Z,6.43
2022-11-28T04:07:37.514Z,4.53
2022-11-28T04:10:10.900Z,4.13
2022-11-28T04:12:49.282Z,4.78
2022-11-28T04:15:20.102Z,5.45
2022-11-28T04:18:05.797Z,5.20
2022-11-28T04:20:36.075Z,4.32
2022-11-28T04:23:06.987Z,4.07
2022-11-28T04:25:37.010Z,5.05
2022-11-28T04:28:07.150Z,4.30
2022-11-28T04:30:35.183Z,6.03
2022-11-28T04:33:04.936Z,16.48
2022-11-28T04:35:34.591Z,7.57
2022-11-28T04:38:03.917Z,3.45
2022-11-28T04:40:32.800Z,3.50
2022-11-28T04:43:03.210Z,5.05
2022-11-28T04:45:36.162Z,3.95
2022-11-28T04:48:03.858Z,5.40
2022-11-28T04:50:51.471Z,3.67
2022-11-28T04:53:26.196Z,16.58
2022-11-28T04:56:01.441Z,4.32
2022-11-28T04:58:42.851Z,3.58
2022-11-28T05:01:11.500Z,5.32
2022-11-28T05:03:42.590Z,3.92
2022-11-28T05:06:10.451Z,4.47
2022-11-28T05:08:37.760Z,3.53
2022-11-28T05:11:05.032Z,4.88
2022-11-28T05:13:32.360Z,3.92
2022-11-28T05:16:01.628Z,9.70
2022-11-28T05:18:28.906Z,5.85
2022-11-28T05:20:56.077Z,7.22
2022-11-28T05:23:23.219Z,6.25
2022-11-28T05:25:50.397Z,8.77
2022-11-28T05:28:17.560Z,5.18
2022-11-28T05:30:44.889Z,3.80
2022-11-28T05:33:12.047Z,6.45
2022-11-28T05:35:42.178Z,4.00
2022-11-28T05:38:13.414Z,3.85
2022-11-28T05:40:44.354Z,3.97
2022-11-28T05:43:11.935Z,4.57
2022-11-28T05:45:42.875Z,4.75
2022-11-28T05:48:10.243Z,4.15
2022-11-28T05:50:40.235Z,4.38
2022-11-28T05:53:09.484Z,4.97
2022-11-28T05:55:38.375Z,4.63
2022-11-28T05:58:05.577Z,7.82
2022-11-28T06:00:32.878Z,4.85
2022-11-28T06:03:01.689Z,3.95
2022-11-28T06:05:42.375Z,5.03
2022-11-28T06:08:11.889Z,3.85
2022-11-28T06:10:39.092Z,3.83
2022-11-28T06:13:06.340Z,3.55
2022-11-28T06:15:37.984Z,4.68
2022-11-28T06:18:05.791Z,3.70
2022-11-28T06:20:35.206Z,17.40
2022-11-28T06:23:02.358Z,9.75
2022-11-28T06:25:30.065Z,6.88
2022-11-28T06:27:57.217Z,7.57
2022-11-28T06:30:24.426Z,5.15
2022-11-28T06:32:51.642Z,8.20
2022-11-28T06:35:18.801Z,5.03
2022-11-28T06:37:45.950Z,9.73
2022-11-28T06:40:13.284Z,6.93
2022-11-28T06:42:40.500Z,3.13
2022-11-28T06:45:08.420Z,5.95
2022-11-28T06:47:35.756Z,5.03
2022-11-28T06:50:02.941Z,7.00
2022-11-28T06:52:30.125Z,6.28
2022-11-28T06:54:57.278Z,4.63
2022-11-28T06:57:24.440Z,3.45
2022-11-28T06:59:51.650Z,4.25
2022-11-28T07:02:18.919Z,6.70
2022-11-28T07:04:46.184Z,3.30
2022-11-28T07:07:16.448Z,4.45
2022-11-28T07:09:44.783Z,4.68
2022-11-28T07:12:12.220Z,5.07
2022-11-28T07:14:41.442Z,6.63
2022-11-28T07:17:08.734Z,6.20
2022-11-28T07:19:35.988Z,3.83
2022-11-28T07:22:03.212Z,18.40
2022-11-28T07:24:30.411Z,4.90
2022-11-28T07:26:57.783Z,4.68
2022-11-28T07:29:25.143Z,5.18
2022-11-28T07:31:52.447Z,5.63
2022-11-28T07:34:19.647Z,8.35
2022-11-28T07:36:46.887Z,11.70
2022-11-28T07:39:15.446Z,4.82
2022-11-28T07:41:42.760Z,3.35
2022-11-28T07:44:10.419Z,4.80
2022-11-28T07:46:37.762Z,4.88
2022-11-28T07:49:05.224Z,2.97
2022-11-28T07:51:33.787Z,14.80
2022-11-28T07:54:01.135Z,2.67
2022-11-28T07:56:50.102Z,2.17
2022-11-28T07:59:16.964Z,3.65
2022-11-28T08:01:44.344Z,3.53
2022-11-28T08:04:11.585Z,2.80
2022-11-28T08:06:43.380Z,2.35
2022-11-28T08:09:12.189Z,2.80
2022-11-28T08:11:39.556Z,3.72
2022-11-28T08:14:06.893Z,2.60
2022-11-28T08:16:34.206Z,4.15
2022-11-28T08:19:02.371Z,3.17
2022-11-28T08:21:35.521Z,2.70
2022-11-28T08:24:03.371Z,2.95
2022-11-28T08:26:31.336Z,3.15
2022-11-28T08:28:59.225Z,2.40
2022-11-28T08:31:28.295Z,2.72
2022-11-28T08:33:56.089Z,3.33
2022-11-28T08:36:23.478Z,2.63
2022-11-28T08:39:03.920Z,2.20
2022-11-28T08:41:37.931Z,3.15
2022-11-28T08:44:05.315Z,3.00
2022-11-28T08:46:32.753Z,3.20
2022-11-28T08:49:04.199Z,2.55
2022-11-28T08:51:31.882Z,3.25
2022-11-28T08:53:59.979Z,8.85
2022-11-28T08:56:27.677Z,3.03
2022-11-28T08:58:55.340Z,3.53
2022-11-28T09:01:24.140Z,3.30
2022-11-28T09:03:51.697Z,2.47
2022-11-28T09:06:20.759Z,2.83
2022-11-28T09:08:48.447Z,5.38
2022-11-28T09:11:17.373Z,3.08
2022-11-28T09:13:45.094Z,2.30
2022-11-28T09:16:12.482Z,2.83
2022-11-28T09:18:39.858Z,4.55
2022-11-28T09:21:12.638Z,2.60
2022-11-28T09:23:41.410Z,4.13
2022-11-28T09:26:09.753Z,3.00
2022-11-28T09:28:37.160Z,2.97
2022-11-28T09:31:05.240Z,2.75
2022-11-28T09:33:33.135Z,2.42
2022-11-28T09:36:00.455Z,3.97
2022-11-28T09:38:27.604Z,7.00
2022-11-28T09:40:54.774Z,3.92
2022-11-28T09:43:33.713Z,4.85
2022-11-28T09:46:03.054Z,4.78
2022-11-28T09:48:32.685Z,4.68
2022-11-28T09:51:10.617Z,2.80
2022-11-28T09:53:41.507Z,4.43
2022-11-28T09:56:19.626Z,3.08
2022-11-28T09:58:50.846Z,3.15
2022-11-28T10:01:38.287Z,10.93
2022-11-28T10:04:14.624Z,5.35
2022-11-28T10:06:47.988Z,4.72
2022-11-28T10:09:27.423Z,4.85
2022-11-28T10:12:07.709Z,3.55
2022-11-28T10:14:37.915Z,5.20
2022-11-28T10:17:08.181Z,3.75
2022-11-28T10:19:57.720Z,5.80
2022-11-28T10:22:45.253Z,4.43
2022-11-28T10:25:17.560Z,4.22
2022-11-28T10:27:45.501Z,8.20
2022-11-28T10:30:19.109Z,8.57
2022-11-28T10:35:32.397Z,7.90
2022-11-28T10:37:59.643Z,4.80
2022-11-28T10:40:34.458Z,4.63
2022-11-28T10:43:15.981Z,7.45
2022-11-28T10:45:54.445Z,9.82
2022-11-28T10:48:39.912Z,7.22
2022-11-28T10:51:10.796Z,5.55
2022-11-28T10:53:37.968Z,12.35
2022-11-28T10:56:11.905Z,5.60
2022-11-28T10:58:43.197Z,6.72
2022-11-28T11:01:11.068Z,4.53
2022-11-28T11:03:38.976Z,8.35
2022-11-28T11:06:06.545Z,6.68
2022-11-28T11:08:38.184Z,4.95
2022-11-28T11:11:20.841Z,4.95
2022-11-28T11:13:57.272Z,5.72
2022-11-28T11:16:24.756Z,5.22
2022-11-28T11:18:53.349Z,3.80
2022-11-28T11:21:24.894Z,4.03
2022-11-28T11:24:15.345Z,5.10
2022-11-28T11:26:44.199Z,4.65
2022-11-28T11:29:30.457Z,3.90
2022-11-28T11:32:03.583Z,3.35
2022-11-28T11:34:35.109Z,4.70
2022-11-28T11:37:19.411Z,4.38
2022-11-28T11:39:51.315Z,5.22
2022-11-28T11:42:22.888Z,6.03
2022-11-28T11:44:50.657Z,4.78
2022-11-28T11:47:18.133Z,6.28
2022-11-28T11:49:47.642Z,6.20
2022-11-28T11:52:27.738Z,4.20
2022-11-28T11:54:54.960Z,4.15
2022-11-28T11:57:33.169Z,6.13
2022-11-28T12:00:03.493Z,4.97
2022-11-28T12:02:46.247Z,5.22
2022-11-28T12:05:21.260Z,4.88
2022-11-28T12:08:07.853Z,6.18
2022-11-28T12:10:37.775Z,4.80
2022-11-28T12:13:05.031Z,13.20
2022-11-28T12:15:32.488Z,4.18
2022-11-28T12:18:22.933Z,7.22
2022-11-28T12:20:50.192Z,4.63
2022-11-28T12:23:17.820Z,4.93
2022-11-28T12:25:50.935Z,7.03
2022-11-28T12:28:18.101Z,6.57
2022-11-28T12:30:55.905Z,7.55
2022-11-28T12:33:37.363Z,6.50
2022-11-28T12:36:08.241Z,4.40
2022-11-28T12:38:42.897Z,6.53
2022-11-28T12:41:32.387Z,4.95
2022-11-28T12:43:59.977Z,6.35
2022-11-28T12:46:39.408Z,6.47
2022-11-28T12:49:09.811Z,5.18
2022-11-28T12:51:52.169Z,5.18
2022-11-28T12:54:22.481Z,6.85
2022-11-28T12:56:56.039Z,7.65
2022-11-28T13:02:10.014Z,6.07
2022-11-28T13:04:53.948Z,7.30
2022-11-28T13:07:40.081Z,5.55
2022-11-28T13:10:29.255Z,7.55
2022-11-28T13:13:05.765Z,11.45
2022-11-28T13:15:42.147Z,6.30
2022-11-28T13:18:24.780Z,6.55
2022-11-28T13:21:14.123Z,6.82
2022-11-28T13:23:47.195Z,9.55
2022-11-28T13:26:18.098Z,9.18
2022-11-28T13:28:51.210Z,7.63
2022-11-28T13:31:32.286Z,6.82
2022-11-28T13:33:59.868Z,10.52
2022-11-28T13:39:49.405Z,13.68
2022-11-28T13:42:58.793Z,6.32
2022-11-28T13:45:31.913Z,6.57
2022-11-28T13:48:00.396Z,7.95
2022-11-28T13:50:38.452Z,8.68
2022-11-28T13:53:10.541Z,7.82
2022-11-28T13:55:46.886Z,8.75
2022-11-28T13:58:18.542Z,11.27
2022-11-28T14:01:00.181Z,7.47
2022-11-28T14:03:27.935Z,6.45
2022-11-28T14:05:57.635Z,8.68
2022-11-28T14:08:38.489Z,10.35
2022-11-28T14:11:21.453Z,9.45
2022-11-28T14:13:53.547Z,8.73
2022-11-28T14:16:32.968Z,12.63
2022-11-28T14:19:22.844Z,11.95
2022-11-28T14:21:55.247Z,13.40
2022-11-28T14:24:41.375Z,9.13
2022-11-28T14:27:14.067Z,7.95
2022-11-28T14:29:42.641Z,12.73
2022-11-28T14:32:30.356Z,14.88
2022-11-28T14:34:58.009Z,6.93
2022-11-28T14:37:29.239Z,8.68
2022-11-28T14:39:57.727Z,11.00
2022-11-28T14:42:58.863Z,8.50
2022-11-28T14:45:34.086Z,8.57
2022-11-28T14:48:08.472Z,12.20
2022-11-28T14:50:38.631Z,8.15
2022-11-28T14:53:28.651Z,11.90
2022-11-28T14:55:55.848Z,12.45
2022-11-28T14:58:24.079Z,9.55
2022-11-28T15:00:57.901Z,9.50
2022-11-28T15:03:25.242Z,7.88
2022-11-28T15:05:53.241Z,17.15
2022-11-28T15:08:26.233Z,10.52
2022-11-28T15:11:18.432Z,8.35
2022-11-28T15:14:04.479Z,10.18
2022-11-28T15:16:33.215Z,12.95
2022-11-28T15:19:06.221Z,8.50
2022-11-28T15:21:42.709Z,9.32
2022-11-28T15:24:25.073Z,10.57
2022-11-28T15:26:57.196Z,8.63
2022-11-28T15:29:26.279Z,12.63
2022-11-28T15:31:55.570Z,12.50
2022-11-28T15:34:29.888Z,10.60
2022-11-28T15:36:59.998Z,13.85
2022-11-28T15:39:27.248Z,17.40
2022-11-28T15:41:55.504Z,8.35
2022-11-28T15:44:22.713Z,24.20
2022-11-28T15:46:50.824Z,12.77
2022-11-28T15:49:29.652Z,14.48
2022-11-28T15:52:04.050Z,13.52
2022-11-28T15:54:36.729Z,17.42
2022-11-28T15:57:04.253Z,11.83
2022-11-28T15:59:31.745Z,23.08
2022-11-28T16:02:01.897Z,18.85
2022-11-28T16:04:31.024Z,11.52
2022-11-28T16:07:01.234Z,11.73
2022-11-28T16:09:35.745Z,13.55
2022-11-28T16:12:04.398Z,16.08
2022-11-28T16:14:32.996Z,17.65
2022-11-28T16:17:01.876Z,13.23
2022-11-28T16:19:37.429Z,14.38
2022-11-28T16:22:11.913Z,35.13
2022-11-28T16:24:47.497Z,20.85
2022-11-28T16:27:28.296Z,33.80
2022-11-28T16:29:55.834Z,24.48
2022-11-28T16:32:26.639Z,22.50
2022-11-28T16:34:55.076Z,17.45
2022-11-28T16:37:24.425Z,23.65
2022-11-28T16:40:00.884Z,30.75
2022-11-28T16:42:28.384Z,24.23
2022-11-28T16:44:55.638Z,15.98
2022-11-28T16:47:27.417Z,14.18
2022-11-28T16:50:11.217Z,18.25
2022-11-28T16:52:45.914Z,15.88
2022-11-28T16:55:36.266Z,16.20
2022-11-28T16:58:11.551Z,18.67
2022-11-28T17:00:39.754Z,28.92
2022-11-28T17:03:12.671Z,40.60
2022-11-28T17:05:41.660Z,39.53
2022-11-28T17:08:09.137Z,34.65
2022-11-28T17:10:37.876Z,28.95
2022-11-28T17:13:05.412Z,28.48
2022-11-28T17:15:32.791Z,31.77
2022-11-28T17:17:59.964Z,49.55
2022-11-28T17:20:27.122Z,46.53
2022-11-28T17:22:56.427Z,33.20
2022-11-28T17:25:23.653Z,32.58
2022-11-28T17:27:52.628Z,24.17
2022-11-28T17:30:20.337Z,22.63
2022-11-28T17:32:48.250Z,15.98
2022-11-28T17:35:19.170Z,31.85
2022-11-28T17:37:46.343Z,29.60
2022-11-28T17:40:32.213Z,15.88
2022-11-28T17:42:59.625Z,11.57
2022-11-28T17:45:27.430Z,12.15
2022-11-28T17:47:54.852Z,11.68
2022-11-28T17:50:22.827Z,11.20
2022-11-28T17:52:50.221Z,12.05
2022-11-28T17:55:18.553Z,14.00
2022-11-28T17:57:45.965Z,13.43
2022-11-28T18:00:13.947Z,10.60
2022-11-28T18:02:41.338Z,13.63
2022-11-28T18:05:08.939Z,13.70
2022-11-28T18:07:36.116Z,10.95
2022-11-28T18:10:03.794Z,12.80
2022-11-28T18:12:31.149Z,13.27
2022-11-28T18:15:00.964Z,10.95
2022-11-28T18:17:28.396Z,11.80
2022-11-28T18:19:57.766Z,14.20
2022-11-28T18:22:25.366Z,13.13
2022-11-28T18:24:52.605Z,16.83
2022-11-28T18:27:21.874Z,14.38
2022-11-28T18:29:49.145Z,11.95
2022-11-28T18:32:16.281Z,12.25
2022-11-28T18:34:43.429Z,10.98
2022-11-28T18:37:10.983Z,14.30
2022-11-28T18:39:38.331Z,10.00
2022-11-28T18:42:05.805Z,13.68
2022-11-28T18:44:34.280Z,14.20
2022-11-28T18:47:01.643Z,13.40
2022-11-28T18:49:28.872Z,13.40
2022-11-28T18:51:56.805Z,14.10
2022-11-28T18:54:24.091Z,12.10
2022-11-28T18:56:51.332Z,11.80
2022-11-28T18:59:18.766Z,15.55
2022-11-28T19:01:46.006Z,11.40
2022-11-28T19:04:15.626Z,13.38
2022-11-28T19:06:44.035Z,14.88
2022-11-28T19:09:13.124Z,19.13
2022-11-28T19:11:40.927Z,12.95
2022-11-28T19:14:08.513Z,13.27
2022-11-28T19:16:37.554Z,14.95
2022-11-28T19:19:05.900Z,14.90
2022-11-28T19:21:33.994Z,14.15
2022-11-28T19:24:01.297Z,15.82
2022-11-28T19:26:29.726Z,9.93
2022-11-28T19:28:57.650Z,20.75
2022-11-28T19:31:29.333Z,12.48
2022-11-28T19:34:01.807Z,11.70
2022-11-28T19:36:30.541Z,12.10
2022-11-28T19:38:58.534Z,14.93
2022-11-28T19:41:25.838Z,14.52
2022-11-28T19:43:53.130Z,15.65
2022-11-28T19:46:20.496Z,11.07
2022-11-28T19:48:48.039Z,12.93
2022-11-28T19:51:16.102Z,13.27
2022-11-28T19:53:43.675Z,12.77
2022-11-28T19:56:15.567Z,11.50
2022-11-28T19:58:43.362Z,14.35
2022-11-28T20:01:12.646Z,13.15
2022-11-28T20:03:41.201Z,12.27
2022-11-28T20:06:12.967Z,14.00
2022-11-28T20:08:40.386Z,11.68
2022-11-28T20:11:08.625Z,11.18
2022-11-28T20:13:35.851Z,14.63
2022-11-28T20:16:04.503Z,13.38
2022-11-28T20:18:31.914Z,13.80
2022-11-28T20:21:06.233Z,13.32
2022-11-28T20:23:33.868Z,12.88
2022-11-28T20:26:05.101Z,13.93
2022-11-28T20:28:33.568Z,14.80
2022-11-28T20:31:01.077Z,13.27
2022-11-28T20:33:28.360Z,16.25
2022-11-28T20:36:04.602Z,14.45
2022-11-28T20:38:31.799Z,12.80
2022-11-28T20:41:03.064Z,12.48
2022-11-28T20:43:31.220Z,13.85
2022-11-28T20:46:02.787Z,14.25
2022-11-28T20:48:30.144Z,15.25
2022-11-28T20:50:57.563Z,11.98
2022-11-28T20:53:26.961Z,13.38
2022-11-28T20:56:01.287Z,12.95
2022-11-28T20:58:28.641Z,13.77
2022-11-28T21:00:56.352Z,14.77
2022-11-28T21:03:24.065Z,13.15
2022-11-28T21:05:55.232Z,13.20
2022-11-28T21:08:25.384Z,13.90
2022-11-28T21:10:52.559Z,14.73
2022-11-28T21:13:19.694Z,12.80
2022-11-28T21:15:46.959Z,13.85
2022-11-28T21:18:14.992Z,13.85
2022-11-28T21:20:45.902Z,13.95
2022-11-28T21:23:13.808Z,12.38
2022-11-28T21:25:42.446Z,17.63
2022-11-28T21:28:10.177Z,16.15
2022-11-28T21:30:45.184Z,14.05
2022-11-28T21:33:13.206Z,14.38
2022-11-28T21:35:40.753Z,14.82
2022-11-28T21:38:08.236Z,14.48
2022-11-28T21:40:35.403Z,17.90
2022-11-28T21:43:03.038Z,14.77
2022-11-28T21:45:30.250Z,14.15
2022-11-28T21:47:57.511Z,15.02
2022-11-28T21:50:24.784Z,15.00
2022-11-28T21:52:52.109Z,15.57
2022-11-28T21:55:19.368Z,13.82
2022-11-28T21:57:46.601Z,14.43
2022-11-28T22:00:38.224Z,14.18
2022-11-28T22:03:09.442Z,13.85
2022-11-28T22:05:39.720Z,15.55
2022-11-28T22:08:06.891Z,17.33
2022-11-28T22:10:34.291Z,13.90
2022-11-28T22:13:01.484Z,16.33
2022-11-28T22:15:28.803Z,13.68
2022-11-28T22:17:56.188Z,16.65
2022-11-28T22:20:23.595Z,15.25
2022-11-28T22:22:50.985Z,15.38
2022-11-28T22:25:18.358Z,15.70
2022-11-28T22:27:45.718Z,14.48
2022-11-28T22:30:13.116Z,17.73
2022-11-28T22:32:40.271Z,13.68
2022-11-28T22:35:09.276Z,15.75
2022-11-28T22:37:36.898Z,15.70
2022-11-28T22:40:04.696Z,15.05
2022-11-28T22:42:31.845Z,17.55
2022-11-28T22:44:59.024Z,13.48
2022-11-28T22:47:26.179Z,14.85
2022-11-28T22:49:53.374Z,15.27
2022-11-28T22:52:20.540Z,14.23
2022-11-28T22:54:49.796Z,16.17
2022-11-28T22:57:17.424Z,15.60
2022-11-28T22:59:44.779Z,15.75
2022-11-28T23:02:13.087Z,14.77
2022-11-28T23:04:40.329Z,14.38
2022-11-28T23:07:07.511Z,14.45
2022-11-28T23:09:35.609Z,14.13
2022-11-28T23:12:02.801Z,16.75
2022-11-28T23:14:30.636Z,14.77
2022-11-28T23:16:57.976Z,13.45
2022-11-28T23:19:26.428Z,13.95
2022-11-28T23:21:53.594Z,15.07
2022-11-28T23:24:22.372Z,15.68
2022-11-28T23:26:50.478Z,14.13
2022-11-28T23:29:17.688Z,12.77
2022-11-28T23:31:45.619Z,17.70
2022-11-28T23:34:13.010Z,16.98
2022-11-28T23:36:42.650Z,16.40
2022-11-28T23:39:17.793Z,19.13
2022-11-28T23:41:45.324Z,15.32
2022-11-28T23:44:13.375Z,15.77
2022-11-28T23:46:41.214Z,14.65
2022-11-28T23:49:08.850Z,15.48
2022-11-28T23:51:36.585Z,16.55
2022-11-28T23:54:03.860Z,14.45
2022-11-28T23:56:32.380Z,15.88
2022-11-28T23:59:01.549Z,14.57
